sensor_id;sensor_type;location;lat;lon;timestamp;P1;durP1;ratioP1;P2;durP2;ratioP2
21492;SDS011;10908;50.690;4.400;2023-10-31T00:00:16;10.93;;;5.50;;
21492;SDS011;10908;50.690;4.400;2023-10-31T00:02:42;13.77;;;6.65;;
21492;SDS011;10908;50.690;4.400;2023-10-31T00:05:08;14.88;;;7.05;;
21492;SDS011;10908;50.690;4.400;2023-10-31T00:07:34;13.82;;;7.45;;
21492;SDS011;10908;50.690;4.400;2023-10-31T00:09:59;16.65;;;7.70;;
21492;SDS011;10908;50.690;4.400;2023-10-31T00:12:25;15.77;;;7.45;;
21492;SDS011;10908;50.690;4.400;2023-10-31T00:14:51;15.43;;;8.10;;
21492;SDS011;10908;50.690;4.400;2023-10-31T00:17:16;15.10;;;7.68;;
21492;SDS011;10908;50.690;4.400;2023-10-31T00:19:42;14.65;;;7.00;;
21492;SDS011;10908;50.690;4.400;2023-10-31T00:22:09;13.95;;;6.97;;
21492;SDS011;10908;50.690;4.400;2023-10-31T00:24:35;15.50;;;7.07;;
21492;SDS011;10908;50.690;4.400;2023-10-31T00:27:00;14.18;;;7.38;;
21492;SDS011;10908;50.690;4.400;2023-10-31T00:29:26;13.07;;;6.30;;
21492;SDS011;10908;50.690;4.400;2023-10-31T00:31:52;13.23;;;6.88;;
21492;SDS011;10908;50.690;4.400;2023-10-31T00:34:17;17.23;;;7.95;;
21492;SDS011;10908;50.690;4.400;2023-10-31T00:36:43;15.88;;;7.68;;
21492;SDS011;10908;50.690;4.400;2023-10-31T00:39:08;14.57;;;7.40;;
21492;SDS011;10908;50.690;4.400;2023-10-31T00:41:34;14.57;;;7.80;;
21492;SDS011;10908;50.690;4.400;2023-10-31T00:44:00;14.90;;;8.27;;
21492;SDS011;10908;50.690;4.400;2023-10-31T00:46:25;14.18;;;7.55;;
21492;SDS011;10908;50.690;4.400;2023-10-31T00:48:51;14.45;;;7.45;;
21492;SDS011;10908;50.690;4.400;2023-10-31T00:51:17;13.68;;;7.03;;
21492;SDS011;10908;50.690;4.400;2023-10-31T00:53:42;14.52;;;7.45;;
21492;SDS011;10908;50.690;4.400;2023-10-31T00:56:08;13.43;;;6.97;;
21492;SDS011;10908;50.690;4.400;2023-10-31T00:58:34;13.02;;;7.43;;
21492;SDS011;10908;50.690;4.400;2023-10-31T01:00:59;11.90;;;6.82;;
21492;SDS011;10908;50.690;4.400;2023-10-31T01:03:25;11.35;;;6.85;;
21492;SDS011;10908;50.690;4.400;2023-10-31T01:05:51;11.32;;;6.88;;
21492;SDS011;10908;50.690;4.400;2023-10-31T01:08:16;13.20;;;7.22;;
21492;SDS011;10908;50.690;4.400;2023-10-31T01:10:42;10.68;;;6.70;;
21492;SDS011;10908;50.690;4.400;2023-10-31T01:13:07;14.25;;;6.70;;
21492;SDS011;10908;50.690;4.400;2023-10-31T01:15:33;11.77;;;7.07;;
21492;SDS011;10908;50.690;4.400;2023-10-31T01:17:59;10.30;;;6.07;;
21492;SDS011;10908;50.690;4.400;2023-10-31T01:20:24;11.75;;;6.68;;
21492;SDS011;10908;50.690;4.400;2023-10-31T01:22:50;12.77;;;6.45;;
21492;SDS011;10908;50.690;4.400;2023-10-31T01:25:16;11.10;;;6.30;;
21492;SDS011;10908;50.690;4.400;2023-10-31T01:27:42;10.02;;;6.50;;
21492;SDS011;10908;50.690;4.400;2023-10-31T01:30:08;10.32;;;6.70;;
21492;SDS011;10908;50.690;4.400;2023-10-31T01:32:35;11.45;;;6.80;;
21492;SDS011;10908;50.690;4.400;2023-10-31T01:35:00;11.18;;;6.75;;
21492;SDS011;10908;50.690;4.400;2023-10-31T01:37:26;11.10;;;6.40;;
21492;SDS011;10908;50.690;4.400;2023-10-31T01:39:52;10.57;;;6.53;;
21492;SDS011;10908;50.690;4.400;2023-10-31T01:42:18;11.43;;;6.07;;
21492;SDS011;10908;50.690;4.400;2023-10-31T01:44:43;10.73;;;5.90;;
21492;SDS011;10908;50.690;4.400;2023-10-31T01:47:09;10.02;;;5.60;;
21492;SDS011;10908;50.690;4.400;2023-10-31T01:49:35;8.45;;;5.20;;
21492;SDS011;10908;50.690;4.400;2023-10-31T01:52:02;10.55;;;5.03;;
21492;SDS011;10908;50.690;4.400;2023-10-31T01:54:28;8.35;;;4.93;;
21492;SDS011;10908;50.690;4.400;2023-10-31T01:56:55;8.77;;;4.30;;
21492;SDS011;10908;50.690;4.400;2023-10-31T01:59:23;8.80;;;4.20;;
21492;SDS011;10908;50.690;4.400;2023-10-31T02:01:50;10.00;;;4.72;;
21492;SDS011;10908;50.690;4.400;2023-10-31T02:04:15;7.45;;;4.10;;
21492;SDS011;10908;50.690;4.400;2023-10-31T02:06:41;6.93;;;4.30;;
21492;SDS011;10908;50.690;4.400;2023-10-31T02:09:07;8.65;;;4.05;;
21492;SDS011;10908;50.690;4.400;2023-10-31T02:11:32;7.53;;;4.30;;
21492;SDS011;10908;50.690;4.400;2023-10-31T02:13:58;7.07;;;3.78;;
21492;SDS011;10908;50.690;4.400;2023-10-31T02:16:23;8.30;;;3.70;;
21492;SDS011;10908;50.690;4.400;2023-10-31T02:18:50;6.78;;;4.13;;
21492;SDS011;10908;50.690;4.400;2023-10-31T02:21:16;12.02;;;3.75;;
21492;SDS011;10908;50.690;4.400;2023-10-31T02:23:57;8.13;;;3.80;;
21492;SDS011;10908;50.690;4.400;2023-10-31T02:26:34;5.95;;;3.72;;
21492;SDS011;10908;50.690;4.400;2023-10-31T02:29:00;7.43;;;3.65;;
21492;SDS011;10908;50.690;4.400;2023-10-31T02:31:26;7.13;;;3.40;;
21492;SDS011;10908;50.690;4.400;2023-10-31T02:33:52;5.90;;;3.40;;
21492;SDS011;10908;50.690;4.400;2023-10-31T02:36:18;6.13;;;3.58;;
21492;SDS011;10908;50.690;4.400;2023-10-31T02:38:44;5.72;;;3.40;;
21492;SDS011;10908;50.690;4.400;2023-10-31T02:41:10;6.25;;;3.55;;
21492;SDS011;10908;50.690;4.400;2023-10-31T02:43:37;6.05;;;3.50;;
21492;SDS011;10908;50.690;4.400;2023-10-31T02:46:03;5.75;;;3.70;;
21492;SDS011;10908;50.690;4.400;2023-10-31T02:48:28;6.47;;;3.65;;
21492;SDS011;10908;50.690;4.400;2023-10-31T02:50:56;6.18;;;3.25;;
21492;SDS011;10908;50.690;4.400;2023-10-31T02:53:23;6.10;;;3.22;;
21492;SDS011;10908;50.690;4.400;2023-10-31T02:55:48;6.68;;;3.85;;
21492;SDS011;10908;50.690;4.400;2023-10-31T02:58:14;9.57;;;3.80;;
21492;SDS011;10908;50.690;4.400;2023-10-31T03:00:42;7.18;;;3.95;;
21492;SDS011;10908;50.690;4.400;2023-10-31T03:03:08;7.18;;;4.35;;
21492;SDS011;10908;50.690;4.400;2023-10-31T03:05:34;8.60;;;4.85;;
21492;SDS011;10908;50.690;4.400;2023-10-31T03:07:59;8.45;;;4.70;;
21492;SDS011;10908;50.690;4.400;2023-10-31T03:10:25;8.00;;;5.28;;
21492;SDS011;10908;50.690;4.400;2023-10-31T03:12:51;9.40;;;5.38;;
21492;SDS011;10908;50.690;4.400;2023-10-31T03:15:17;6.97;;;5.22;;
21492;SDS011;10908;50.690;4.400;2023-10-31T03:17:42;8.52;;;5.90;;
21492;SDS011;10908;50.690;4.400;2023-10-31T03:20:09;9.23;;;6.32;;
21492;SDS011;10908;50.690;4.400;2023-10-31T03:22:35;8.15;;;6.07;;
21492;SDS011;10908;50.690;4.400;2023-10-31T03:25:00;10.98;;;7.00;;
21492;SDS011;10908;50.690;4.400;2023-10-31T03:27:26;9.93;;;6.32;;
21492;SDS011;10908;50.690;4.400;2023-10-31T03:29:51;10.23;;;6.65;;
21492;SDS011;10908;50.690;4.400;2023-10-31T03:32:17;10.52;;;6.82;;
21492;SDS011;10908;50.690;4.400;2023-10-31T03:34:43;9.93;;;6.60;;
21492;SDS011;10908;50.690;4.400;2023-10-31T03:37:08;12.30;;;6.43;;
21492;SDS011;10908;50.690;4.400;2023-10-31T03:39:34;9.57;;;6.40;;
21492;SDS011;10908;50.690;4.400;2023-10-31T03:41:59;9.07;;;6.55;;
21492;SDS011;10908;50.690;4.400;2023-10-31T03:44:25;9.57;;;6.38;;
21492;SDS011;10908;50.690;4.400;2023-10-31T03:46:51;10.73;;;6.50;;
21492;SDS011;10908;50.690;4.400;2023-10-31T03:49:16;9.55;;;6.53;;
21492;SDS011;10908;50.690;4.400;2023-10-31T03:51:42;10.10;;;6.50;;
21492;SDS011;10908;50.690;4.400;2023-10-31T03:54:08;10.13;;;6.45;;
21492;SDS011;10908;50.690;4.400;2023-10-31T03:56:40;11.70;;;6.85;;
21492;SDS011;10908;50.690;4.400;2023-10-31T03:59:07;10.85;;;6.43;;
21492;SDS011;10908;50.690;4.400;2023-10-31T04:01:32;9.88;;;6.53;;
21492;SDS011;10908;50.690;4.400;2023-10-31T04:03:58;10.20;;;6.45;;
21492;SDS011;10908;50.690;4.400;2023-10-31T04:06:24;9.98;;;6.32;;
21492;SDS011;10908;50.690;4.400;2023-10-31T04:08:49;9.93;;;6.30;;
21492;SDS011;10908;50.690;4.400;2023-10-31T04:11:15;9.93;;;6.32;;
21492;SDS011;10908;50.690;4.400;2023-10-31T04:13:40;10.15;;;6.35;;
21492;SDS011;10908;50.690;4.400;2023-10-31T04:16:06;9.18;;;6.13;;
21492;SDS011;10908;50.690;4.400;2023-10-31T04:18:32;11.68;;;6.35;;
21492;SDS011;10908;50.690;4.400;2023-10-31T04:20:58;9.25;;;6.50;;
21492;SDS011;10908;50.690;4.400;2023-10-31T04:23:23;8.93;;;6.10;;
21492;SDS011;10908;50.690;4.400;2023-10-31T04:25:49;10.32;;;6.50;;
21492;SDS011;10908;50.690;4.400;2023-10-31T04:28:17;9.68;;;6.57;;
21492;SDS011;10908;50.690;4.400;2023-10-31T04:30:43;11.60;;;6.72;;
21492;SDS011;10908;50.690;4.400;2023-10-31T04:33:09;10.75;;;6.38;;
21492;SDS011;10908;50.690;4.400;2023-10-31T04:35:34;12.70;;;6.82;;
21492;SDS011;10908;50.690;4.400;2023-10-31T04:38:00;12.00;;;6.85;;
21492;SDS011;10908;50.690;4.400;2023-10-31T04:40:26;11.25;;;6.32;;
21492;SDS011;10908;50.690;4.400;2023-10-31T04:42:51;10.90;;;6.65;;
21492;SDS011;10908;50.690;4.400;2023-10-31T04:45:17;9.00;;;6.00;;
21492;SDS011;10908;50.690;4.400;2023-10-31T04:47:43;8.35;;;5.72;;
21492;SDS011;10908;50.690;4.400;2023-10-31T04:50:09;10.40;;;6.30;;
21492;SDS011;10908;50.690;4.400;2023-10-31T04:52:35;8.50;;;5.93;;
21492;SDS011;10908;50.690;4.400;2023-10-31T04:55:00;11.63;;;6.60;;
21492;SDS011;10908;50.690;4.400;2023-10-31T04:57:26;11.85;;;6.13;;
21492;SDS011;10908;50.690;4.400;2023-10-31T04:59:52;10.25;;;6.07;;
21492;SDS011;10908;50.690;4.400;2023-10-31T05:02:21;10.80;;;5.97;;
21492;SDS011;10908;50.690;4.400;2023-10-31T05:04:47;8.48;;;5.65;;
21492;SDS011;10908;50.690;4.400;2023-10-31T05:07:16;10.43;;;6.63;;
21492;SDS011;10908;50.690;4.400;2023-10-31T05:09:42;10.50;;;6.55;;
21492;SDS011;10908;50.690;4.400;2023-10-31T05:12:07;10.50;;;6.10;;
21492;SDS011;10908;50.690;4.400;2023-10-31T05:14:33;10.95;;;6.30;;
21492;SDS011;10908;50.690;4.400;2023-10-31T05:16:58;9.07;;;5.90;;
21492;SDS011;10908;50.690;4.400;2023-10-31T05:19:24;11.88;;;6.32;;
21492;SDS011;10908;50.690;4.400;2023-10-31T05:21:50;12.57;;;6.22;;
21492;SDS011;10908;50.690;4.400;2023-10-31T05:24:16;9.52;;;5.70;;
21492;SDS011;10908;50.690;4.400;2023-10-31T05:26:42;9.07;;;6.18;;
21492;SDS011;10908;50.690;4.400;2023-10-31T05:29:08;9.13;;;5.78;;
21492;SDS011;10908;50.690;4.400;2023-10-31T05:31:34;8.52;;;5.65;;
21492;SDS011;10908;50.690;4.400;2023-10-31T05:34:00;10.02;;;5.80;;
21492;SDS011;10908;50.690;4.400;2023-10-31T05:36:26;9.85;;;5.60;;
21492;SDS011;10908;50.690;4.400;2023-10-31T05:38:53;7.93;;;5.38;;
21492;SDS011;10908;50.690;4.400;2023-10-31T05:41:18;9.57;;;6.05;;
21492;SDS011;10908;50.690;4.400;2023-10-31T05:43:44;9.90;;;6.25;;
21492;SDS011;10908;50.690;4.400;2023-10-31T05:46:10;10.23;;;5.90;;
21492;SDS011;10908;50.690;4.400;2023-10-31T05:48:39;10.55;;;6.13;;
21492;SDS011;10908;50.690;4.400;2023-10-31T05:51:12;9.98;;;5.70;;
21492;SDS011;10908;50.690;4.400;2023-10-31T05:53:44;11.63;;;5.68;;
21492;SDS011;10908;50.690;4.400;2023-10-31T05:56:11;8.90;;;5.53;;
21492;SDS011;10908;50.690;4.400;2023-10-31T05:58:37;9.00;;;5.80;;
21492;SDS011;10908;50.690;4.400;2023-10-31T06:01:03;9.38;;;5.70;;
21492;SDS011;10908;50.690;4.400;2023-10-31T06:03:29;10.73;;;5.63;;
21492;SDS011;10908;50.690;4.400;2023-10-31T06:05:55;8.40;;;5.03;;
21492;SDS011;10908;50.690;4.400;2023-10-31T06:08:21;10.30;;;5.32;;
21492;SDS011;10908;50.690;4.400;2023-10-31T06:10:49;9.27;;;5.40;;
21492;SDS011;10908;50.690;4.400;2023-10-31T06:13:15;10.38;;;5.53;;
21492;SDS011;10908;50.690;4.400;2023-10-31T06:15:41;8.07;;;4.57;;
21492;SDS011;10908;50.690;4.400;2023-10-31T06:18:07;8.45;;;4.78;;
21492;SDS011;10908;50.690;4.400;2023-10-31T06:20:33;9.82;;;5.15;;
21492;SDS011;10908;50.690;4.400;2023-10-31T06:23:00;8.85;;;5.15;;
21492;SDS011;10908;50.690;4.400;2023-10-31T06:25:28;9.45;;;5.10;;
21492;SDS011;10908;50.690;4.400;2023-10-31T06:27:54;10.40;;;5.15;;
21492;SDS011;10908;50.690;4.400;2023-10-31T06:30:20;9.02;;;5.22;;
21492;SDS011;10908;50.690;4.400;2023-10-31T06:32:45;8.73;;;4.93;;
21492;SDS011;10908;50.690;4.400;2023-10-31T06:35:11;9.02;;;5.30;;
21492;SDS011;10908;50.690;4.400;2023-10-31T06:37:37;9.18;;;5.28;;
21492;SDS011;10908;50.690;4.400;2023-10-31T06:40:03;9.25;;;5.70;;
21492;SDS011;10908;50.690;4.400;2023-10-31T06:42:30;8.90;;;5.47;;
21492;SDS011;10908;50.690;4.400;2023-10-31T06:44:55;8.43;;;5.18;;
21492;SDS011;10908;50.690;4.400;2023-10-31T06:47:21;7.40;;;4.90;;
21492;SDS011;10908;50.690;4.400;2023-10-31T06:49:46;10.00;;;5.88;;
21492;SDS011;10908;50.690;4.400;2023-10-31T06:52:12;13.20;;;6.35;;
21492;SDS011;10908;50.690;4.400;2023-10-31T06:54:38;11.10;;;5.50;;
21492;SDS011;10908;50.690;4.400;2023-10-31T06:57:03;13.00;;;5.65;;
21492;SDS011;10908;50.690;4.400;2023-10-31T06:59:29;10.48;;;5.78;;
21492;SDS011;10908;50.690;4.400;2023-10-31T07:01:55;9.48;;;5.88;;
21492;SDS011;10908;50.690;4.400;2023-10-31T07:04:20;9.93;;;6.13;;
21492;SDS011;10908;50.690;4.400;2023-10-31T07:06:46;11.45;;;6.15;;
21492;SDS011;10908;50.690;4.400;2023-10-31T07:09:12;9.65;;;5.85;;
21492;SDS011;10908;50.690;4.400;2023-10-31T07:11:37;10.93;;;6.22;;
21492;SDS011;10908;50.690;4.400;2023-10-31T07:14:03;13.43;;;6.22;;
21492;SDS011;10908;50.690;4.400;2023-10-31T07:16:29;11.05;;;6.25;;
21492;SDS011;10908;50.690;4.400;2023-10-31T07:18:55;11.50;;;6.68;;
21492;SDS011;10908;50.690;4.400;2023-10-31T07:21:21;14.82;;;7.10;;
21492;SDS011;10908;50.690;4.400;2023-10-31T07:23:46;15.32;;;8.02;;
21492;SDS011;10908;50.690;4.400;2023-10-31T07:26:12;12.73;;;7.38;;
21492;SDS011;10908;50.690;4.400;2023-10-31T07:28:38;16.05;;;8.07;;
21492;SDS011;10908;50.690;4.400;2023-10-31T07:31:03;13.27;;;7.85;;
21492;SDS011;10908;50.690;4.400;2023-10-31T07:33:30;16.27;;;7.22;;
21492;SDS011;10908;50.690;4.400;2023-10-31T07:35:55;12.25;;;7.00;;
21492;SDS011;10908;50.690;4.400;2023-10-31T07:38:21;12.40;;;6.60;;
21492;SDS011;10908;50.690;4.400;2023-10-31T07:40:46;11.52;;;6.50;;
21492;SDS011;10908;50.690;4.400;2023-10-31T07:43:13;13.13;;;6.57;;
21492;SDS011;10908;50.690;4.400;2023-10-31T07:45:39;15.30;;;6.70;;
21492;SDS011;10908;50.690;4.400;2023-10-31T07:48:05;14.60;;;6.38;;
21492;SDS011;10908;50.690;4.400;2023-10-31T07:50:30;10.95;;;6.22;;
21492;SDS011;10908;50.690;4.400;2023-10-31T07:52:56;11.82;;;6.10;;
21492;SDS011;10908;50.690;4.400;2023-10-31T07:55:22;9.25;;;5.35;;
21492;SDS011;10908;50.690;4.400;2023-10-31T07:57:48;9.30;;;5.30;;
21492;SDS011;10908;50.690;4.400;2023-10-31T08:00:13;10.23;;;4.97;;
21492;SDS011;10908;50.690;4.400;2023-10-31T08:02:39;8.75;;;4.70;;
21492;SDS011;10908;50.690;4.400;2023-10-31T08:05:05;8.77;;;4.35;;
21492;SDS011;10908;50.690;4.400;2023-10-31T08:07:32;9.23;;;4.80;;
21492;SDS011;10908;50.690;4.400;2023-10-31T08:09:57;13.13;;;4.40;;
21492;SDS011;10908;50.690;4.400;2023-10-31T08:12:23;10.60;;;4.75;;
21492;SDS011;10908;50.690;4.400;2023-10-31T08:14:49;8.15;;;4.40;;
21492;SDS011;10908;50.690;4.400;2023-10-31T08:17:14;12.63;;;4.20;;
21492;SDS011;10908;50.690;4.400;2023-10-31T08:19:40;7.93;;;4.00;;
21492;SDS011;10908;50.690;4.400;2023-10-31T08:22:06;7.50;;;4.15;;
21492;SDS011;10908;50.690;4.400;2023-10-31T08:27:17;10.63;;;4.00;;
21492;SDS011;10908;50.690;4.400;2023-10-31T08:29:43;10.07;;;3.90;;
21492;SDS011;10908;50.690;4.400;2023-10-31T08:32:09;10.40;;;4.20;;
21492;SDS011;10908;50.690;4.400;2023-10-31T08:34:34;7.40;;;3.83;;
21492;SDS011;10908;50.690;4.400;2023-10-31T08:37:00;6.80;;;3.47;;
21492;SDS011;10908;50.690;4.400;2023-10-31T08:39:26;8.73;;;4.00;;
21492;SDS011;10908;50.690;4.400;2023-10-31T08:41:55;10.90;;;4.10;;
21492;SDS011;10908;50.690;4.400;2023-10-31T08:44:22;10.68;;;3.97;;
21492;SDS011;10908;50.690;4.400;2023-10-31T08:46:48;7.55;;;3.60;;
21492;SDS011;10908;50.690;4.400;2023-10-31T08:49:14;10.90;;;3.95;;
21492;SDS011;10908;50.690;4.400;2023-10-31T08:51:41;9.55;;;3.85;;
21492;SDS011;10908;50.690;4.400;2023-10-31T08:54:07;9.85;;;3.50;;
21492;SDS011;10908;50.690;4.400;2023-10-31T08:56:33;12.93;;;4.22;;
21492;SDS011;10908;50.690;4.400;2023-10-31T08:58:59;9.23;;;3.80;;
21492;SDS011;10908;50.690;4.400;2023-10-31T09:01:25;11.50;;;3.60;;
21492;SDS011;10908;50.690;4.400;2023-10-31T09:03:51;9.25;;;3.42;;
21492;SDS011;10908;50.690;4.400;2023-10-31T09:06:17;9.32;;;3.83;;
21492;SDS011;10908;50.690;4.400;2023-10-31T09:08:43;8.88;;;3.85;;
21492;SDS011;10908;50.690;4.400;2023-10-31T09:11:09;7.30;;;3.15;;
21492;SDS011;10908;50.690;4.400;2023-10-31T09:13:35;9.65;;;3.40;;
21492;SDS011;10908;50.690;4.400;2023-10-31T09:18:48;8.52;;;3.55;;
21492;SDS011;10908;50.690;4.400;2023-10-31T09:21:14;8.20;;;3.80;;
21492;SDS011;10908;50.690;4.400;2023-10-31T09:23:39;11.73;;;4.07;;
21492;SDS011;10908;50.690;4.400;2023-10-31T09:26:05;11.70;;;4.20;;
21492;SDS011;10908;50.690;4.400;2023-10-31T09:28:31;8.55;;;3.50;;
21492;SDS011;10908;50.690;4.400;2023-10-31T09:30:56;10.98;;;3.78;;
21492;SDS011;10908;50.690;4.400;2023-10-31T09:33:24;10.95;;;3.92;;
21492;SDS011;10908;50.690;4.400;2023-10-31T09:35:50;9.27;;;4.00;;
21492;SDS011;10908;50.690;4.400;2023-10-31T09:38:16;11.00;;;3.90;;
21492;SDS011;10908;50.690;4.400;2023-10-31T09:40:41;10.95;;;4.15;;
21492;SDS011;10908;50.690;4.400;2023-10-31T09:43:07;8.00;;;3.45;;
21492;SDS011;10908;50.690;4.400;2023-10-31T09:45:32;8.32;;;3.47;;
21492;SDS011;10908;50.690;4.400;2023-10-31T09:47:58;8.43;;;4.00;;
21492;SDS011;10908;50.690;4.400;2023-10-31T09:50:26;10.15;;;3.50;;
21492;SDS011;10908;50.690;4.400;2023-10-31T09:52:52;8.63;;;3.63;;
21492;SDS011;10908;50.690;4.400;2023-10-31T09:55:18;11.10;;;3.83;;
21492;SDS011;10908;50.690;4.400;2023-10-31T09:57:44;11.82;;;4.07;;
21492;SDS011;10908;50.690;4.400;2023-10-31T10:00:11;10.65;;;4.50;;
21492;SDS011;10908;50.690;4.400;2023-10-31T10:02:37;13.60;;;4.32;;
21492;SDS011;10908;50.690;4.400;2023-10-31T10:05:03;14.20;;;4.43;;
21492;SDS011;10908;50.690;4.400;2023-10-31T10:07:30;13.52;;;4.55;;
21492;SDS011;10908;50.690;4.400;2023-10-31T10:10:00;14.27;;;4.55;;
21492;SDS011;10908;50.690;4.400;2023-10-31T10:12:26;11.38;;;4.10;;
21492;SDS011;10908;50.690;4.400;2023-10-31T10:14:52;10.32;;;4.13;;
21492;SDS011;10908;50.690;4.400;2023-10-31T10:17:20;13.82;;;4.60;;
21492;SDS011;10908;50.690;4.400;2023-10-31T10:19:47;12.32;;;4.50;;
21492;SDS011;10908;50.690;4.400;2023-10-31T10:22:12;10.80;;;5.18;;
21492;SDS011;10908;50.690;4.400;2023-10-31T10:24:40;10.18;;;4.35;;
21492;SDS011;10908;50.690;4.400;2023-10-31T10:27:07;10.07;;;4.88;;
21492;SDS011;10908;50.690;4.400;2023-10-31T10:29:33;11.30;;;5.15;;
21492;SDS011;10908;50.690;4.400;2023-10-31T10:32:00;13.05;;;5.05;;
21492;SDS011;10908;50.690;4.400;2023-10-31T10:34:25;14.85;;;5.95;;
21492;SDS011;10908;50.690;4.400;2023-10-31T10:36:51;12.80;;;5.85;;
21492;SDS011;10908;50.690;4.400;2023-10-31T10:39:19;14.85;;;6.28;;
21492;SDS011;10908;50.690;4.400;2023-10-31T10:41:53;13.82;;;5.93;;
21492;SDS011;10908;50.690;4.400;2023-10-31T10:44:20;12.13;;;5.85;;
21492;SDS011;10908;50.690;4.400;2023-10-31T10:46:54;18.75;;;6.90;;
21492;SDS011;10908;50.690;4.400;2023-10-31T10:49:20;14.88;;;6.88;;
21492;SDS011;10908;50.690;4.400;2023-10-31T10:51:58;18.23;;;6.90;;
21492;SDS011;10908;50.690;4.400;2023-10-31T10:57:16;11.27;;;6.13;;
21492;SDS011;10908;50.690;4.400;2023-10-31T10:59:54;15.13;;;6.03;;
21492;SDS011;10908;50.690;4.400;2023-10-31T11:02:23;12.90;;;5.95;;
21492;SDS011;10908;50.690;4.400;2023-10-31T11:04:50;14.10;;;6.00;;
21492;SDS011;10908;50.690;4.400;2023-10-31T11:07:17;10.73;;;5.50;;
21492;SDS011;10908;50.690;4.400;2023-10-31T11:09:43;13.50;;;5.63;;
21492;SDS011;10908;50.690;4.400;2023-10-31T11:12:11;12.15;;;5.82;;
21492;SDS011;10908;50.690;4.400;2023-10-31T11:14:39;11.45;;;5.43;;
21492;SDS011;10908;50.690;4.400;2023-10-31T11:17:06;11.27;;;5.28;;
21492;SDS011;10908;50.690;4.400;2023-10-31T11:19:54;16.02;;;5.40;;
21492;SDS011;10908;50.690;4.400;2023-10-31T11:22:20;11.32;;;4.82;;
21492;SDS011;10908;50.690;4.400;2023-10-31T11:24:47;12.63;;;5.68;;
21492;SDS011;10908;50.690;4.400;2023-10-31T11:27:14;13.15;;;5.30;;
21492;SDS011;10908;50.690;4.400;2023-10-31T11:29:39;13.27;;;5.40;;
21492;SDS011;10908;50.690;4.400;2023-10-31T11:32:09;10.82;;;5.00;;
21492;SDS011;10908;50.690;4.400;2023-10-31T11:43:17;7.82;;;3.33;;
21492;SDS011;10908;50.690;4.400;2023-10-31T11:45:43;13.13;;;4.18;;
21492;SDS011;10908;50.690;4.400;2023-10-31T11:48:12;7.05;;;3.50;;
21492;SDS011;10908;50.690;4.400;2023-10-31T11:53:58;5.60;;;2.53;;
21492;SDS011;10908;50.690;4.400;2023-10-31T11:56:37;8.48;;;2.90;;
21492;SDS011;10908;50.690;4.400;2023-10-31T11:59:19;8.63;;;2.90;;
21492;SDS011;10908;50.690;4.400;2023-10-31T12:02:16;9.45;;;2.80;;
21492;SDS011;10908;50.690;4.400;2023-10-31T12:05:14;7.88;;;3.15;;
21492;SDS011;10908;50.690;4.400;2023-10-31T12:07:48;6.57;;;2.88;;
21492;SDS011;10908;50.690;4.400;2023-10-31T12:10:24;7.78;;;2.90;;
21492;SDS011;10908;50.690;4.400;2023-10-31T12:12:54;9.18;;;2.90;;
21492;SDS011;10908;50.690;4.400;2023-10-31T12:15:21;6.00;;;2.50;;
21492;SDS011;10908;50.690;4.400;2023-10-31T12:17:47;7.18;;;3.00;;
21492;SDS011;10908;50.690;4.400;2023-10-31T12:20:13;8.10;;;3.00;;
21492;SDS011;10908;50.690;4.400;2023-10-31T12:22:40;8.00;;;2.95;;
21492;SDS011;10908;50.690;4.400;2023-10-31T12:25:07;6.22;;;2.70;;
21492;SDS011;10908;50.690;4.400;2023-10-31T12:27:43;6.68;;;2.63;;
21492;SDS011;10908;50.690;4.400;2023-10-31T12:30:15;5.43;;;2.53;;
21492;SDS011;10908;50.690;4.400;2023-10-31T12:32:45;5.93;;;2.80;;
21492;SDS011;10908;50.690;4.400;2023-10-31T12:35:21;5.72;;;2.22;;
21492;SDS011;10908;50.690;4.400;2023-10-31T12:37:49;5.03;;;2.30;;
21492;SDS011;10908;50.690;4.400;2023-10-31T12:40:18;5.68;;;2.53;;
21492;SDS011;10908;50.690;4.400;2023-10-31T12:42:45;4.65;;;2.05;;
21492;SDS011;10908;50.690;4.400;2023-10-31T12:45:12;7.80;;;3.05;;
21492;SDS011;10908;50.690;4.400;2023-10-31T12:47:39;5.00;;;2.33;;
21492;SDS011;10908;50.690;4.400;2023-10-31T12:50:08;6.00;;;2.20;;
21492;SDS011;10908;50.690;4.400;2023-10-31T12:52:48;6.82;;;2.97;;
21492;SDS011;10908;50.690;4.400;2023-10-31T12:55:17;5.40;;;2.65;;
21492;SDS011;10908;50.690;4.400;2023-10-31T12:57:45;7.45;;;3.05;;
21492;SDS011;10908;50.690;4.400;2023-10-31T13:00:14;6.50;;;3.28;;
21492;SDS011;10908;50.690;4.400;2023-10-31T13:02:43;8.43;;;3.60;;
21492;SDS011;10908;50.690;4.400;2023-10-31T13:07:39;7.38;;;3.47;;
21492;SDS011;10908;50.690;4.400;2023-10-31T13:10:06;8.85;;;3.85;;
21492;SDS011;10908;50.690;4.400;2023-10-31T13:12:35;7.90;;;3.80;;
21492;SDS011;10908;50.690;4.400;2023-10-31T13:15:01;8.77;;;3.95;;
21492;SDS011;10908;50.690;4.400;2023-10-31T13:17:27;9.00;;;3.50;;
21492;SDS011;10908;50.690;4.400;2023-10-31T13:19:53;8.35;;;4.15;;
21492;SDS011;10908;50.690;4.400;2023-10-31T13:22:19;11.57;;;4.82;;
21492;SDS011;10908;50.690;4.400;2023-10-31T13:24:44;9.98;;;4.60;;
21492;SDS011;10908;50.690;4.400;2023-10-31T13:27:10;9.40;;;4.15;;
21492;SDS011;10908;50.690;4.400;2023-10-31T13:29:41;13.57;;;4.95;;
21492;SDS011;10908;50.690;4.400;2023-10-31T13:32:06;7.38;;;4.38;;
21492;SDS011;10908;50.690;4.400;2023-10-31T13:34:33;9.82;;;4.20;;
21492;SDS011;10908;50.690;4.400;2023-10-31T13:36:59;8.63;;;3.80;;
21492;SDS011;10908;50.690;4.400;2023-10-31T13:39:25;7.00;;;3.63;;
21492;SDS011;10908;50.690;4.400;2023-10-31T13:41:51;6.35;;;3.33;;
21492;SDS011;10908;50.690;4.400;2023-10-31T13:44:16;6.90;;;3.42;;
21492;SDS011;10908;50.690;4.400;2023-10-31T13:46:42;8.13;;;3.83;;
21492;SDS011;10908;50.690;4.400;2023-10-31T13:49:08;7.15;;;3.72;;
21492;SDS011;10908;50.690;4.400;2023-10-31T13:51:34;7.03;;;3.40;;
21492;SDS011;10908;50.690;4.400;2023-10-31T13:53:59;7.70;;;4.10;;
21492;SDS011;10908;50.690;4.400;2023-10-31T13:56:25;7.55;;;3.40;;
21492;SDS011;10908;50.690;4.400;2023-10-31T13:58:51;7.05;;;3.25;;
21492;SDS011;10908;50.690;4.400;2023-10-31T14:01:16;8.48;;;3.47;;
21492;SDS011;10908;50.690;4.400;2023-10-31T14:03:42;9.25;;;4.00;;
21492;SDS011;10908;50.690;4.400;2023-10-31T14:06:08;7.32;;;3.33;;
21492;SDS011;10908;50.690;4.400;2023-10-31T14:08:34;7.50;;;3.33;;
21492;SDS011;10908;50.690;4.400;2023-10-31T14:10:59;8.85;;;3.58;;
21492;SDS011;10908;50.690;4.400;2023-10-31T14:13:27;6.80;;;3.45;;
21492;SDS011;10908;50.690;4.400;2023-10-31T14:15:53;10.77;;;4.03;;
21492;SDS011;10908;50.690;4.400;2023-10-31T14:18:19;11.38;;;3.85;;
21492;SDS011;10908;50.690;4.400;2023-10-31T14:20:44;9.95;;;4.25;;
21492;SDS011;10908;50.690;4.400;2023-10-31T14:26:03;11.32;;;3.97;;
21492;SDS011;10908;50.690;4.400;2023-10-31T14:28:30;10.30;;;4.07;;
21492;SDS011;10908;50.690;4.400;2023-10-31T14:30:55;9.75;;;3.97;;
21492;SDS011;10908;50.690;4.400;2023-10-31T14:33:21;10.93;;;3.40;;
21492;SDS011;10908;50.690;4.400;2023-10-31T14:35:46;10.57;;;3.72;;
21492;SDS011;10908;50.690;4.400;2023-10-31T14:38:12;9.55;;;2.92;;
21492;SDS011;10908;50.690;4.400;2023-10-31T14:40:38;9.77;;;3.25;;
21492;SDS011;10908;50.690;4.400;2023-10-31T14:43:03;9.38;;;3.22;;
21492;SDS011;10908;50.690;4.400;2023-10-31T14:45:29;6.90;;;2.42;;
21492;SDS011;10908;50.690;4.400;2023-10-31T14:47:55;7.75;;;2.72;;
21492;SDS011;10908;50.690;4.400;2023-10-31T14:50:20;9.60;;;3.03;;
21492;SDS011;10908;50.690;4.400;2023-10-31T14:52:46;11.07;;;2.78;;
21492;SDS011;10908;50.690;4.400;2023-10-31T14:55:12;10.32;;;2.83;;
21492;SDS011;10908;50.690;4.400;2023-10-31T14:57:38;8.45;;;3.00;;
21492;SDS011;10908;50.690;4.400;2023-10-31T15:00:05;6.57;;;2.80;;
21492;SDS011;10908;50.690;4.400;2023-10-31T15:02:33;9.35;;;2.95;;